createdAt,value
2019-05-05T00:00:07.053Z,99.90
2019-05-05T00:03:22.249Z,99.90
2019-05-05T00:06:24.985Z,99.90
2019-05-05T00:09:26.877Z,99.90
2019-05-05T00:12:36.426Z,99.90
2019-05-05T00:15:56.471Z,99.90
2019-05-05T00:18:58.221Z,99.90
2019-05-05T00:21:59.509Z,99.90
2019-05-05T00:25:00.965Z,99.90
2019-05-05T00:28:04.893Z,99.90
2019-05-05T00:31:06.027Z,99.90
2019-05-05T00:34:07.502Z,99.90
2019-05-05T00:37:08.783Z,99.90
2019-05-05T00:40:10.286Z,99.90
2019-05-05T00:43:11.550Z,99.90
2019-05-05T00:46:16.479Z,99.90
2019-05-05T00:49:17.953Z,99.90
2019-05-05T00:52:20.444Z,99.90
2019-05-05T00:55:21.730Z,99.90
2019-05-05T00:58:24.985Z,99.90
2019-05-05T01:01:28.176Z,99.90
2019-05-05T01:04:48.105Z,99.90
2019-05-05T01:07:49.481Z,99.90
2019-05-05T01:10:50.838Z,99.90
2019-05-05T01:13:52.216Z,99.90
2019-05-05T01:16:54.615Z,99.90
2019-05-05T01:20:03.711Z,99.90
2019-05-05T01:22:59.449Z,99.90
2019-05-05T01:26:00.718Z,99.90
2019-05-05T01:29:05.292Z,99.90
2019-05-05T01:32:08.626Z,99.90
2019-05-05T01:35:10.434Z,99.90
2019-05-05T01:38:16.754Z,99.90
2019-05-05T01:41:31.929Z,99.90
2019-05-05T01:44:35.113Z,99.90
2019-05-05T01:47:36.464Z,99.90
2019-05-05T01:50:38.202Z,99.90
2019-05-05T01:53:39.479Z,99.90
2019-05-05T01:56:40.945Z,99.90
2019-05-05T01:59:44.586Z,99.90
2019-05-05T02:02:45.721Z,99.90
2019-05-05T02:05:46.999Z,99.90
2019-05-05T02:08:48.457Z,99.90
2019-05-05T02:11:50.161Z,99.90
2019-05-05T02:14:51.814Z,99.90
2019-05-05T02:17:54.959Z,99.90
2019-05-05T02:20:59.805Z,99.90
2019-05-05T02:24:01.099Z,99.90
2019-05-05T02:27:02.390Z,99.90
2019-05-05T02:30:16.561Z,99.90
2019-05-05T02:33:19.434Z,99.90
2019-05-05T02:36:21.636Z,99.90
2019-05-05T02:39:22.971Z,99.90
2019-05-05T02:42:25.164Z,99.90
2019-05-05T02:46:14.344Z,99.90
2019-05-05T02:49:15.438Z,99.90
2019-05-05T02:52:16.778Z,99.90
2019-05-05T02:55:18.237Z,99.90
2019-05-05T02:58:19.529Z,99.90
2019-05-05T03:01:28.874Z,99.90
2019-05-05T03:04:30.370Z,99.90
2019-05-05T03:07:31.641Z,99.90
2019-05-05T03:10:33.986Z,99.90
2019-05-05T03:13:35.786Z,99.90
2019-05-05T03:16:37.277Z,99.90
2019-05-05T03:19:38.567Z,99.90
2019-05-05T03:22:40.119Z,99.90
2019-05-05T03:25:41.395Z,99.90
2019-05-05T03:28:46.697Z,99.90
2019-05-05T03:31:48.198Z,99.90
2019-05-05T03:34:49.471Z,99.90
2019-05-05T03:37:51.634Z,99.90
2019-05-05T03:40:55.045Z,99.90
2019-05-05T03:44:04.862Z,99.90
2019-05-05T03:47:06.426Z,99.90
2019-05-05T03:50:09.103Z,99.90
2019-05-05T03:53:10.377Z,99.90
2019-05-05T03:56:11.678Z,99.90
2019-05-05T03:59:14.116Z,99.90
2019-05-05T04:02:26.965Z,99.90
2019-05-05T04:05:34.035Z,99.90
2019-05-05T04:08:35.653Z,99.90
2019-05-05T04:11:36.926Z,99.90
2019-05-05T04:14:38.581Z,99.90
2019-05-05T04:17:44.122Z,99.90
2019-05-05T04:20:45.182Z,99.80
2019-05-05T04:23:46.477Z,99.40
2019-05-05T04:26:47.949Z,99.20
2019-05-05T04:29:49.329Z,99.50
2019-05-05T04:32:50.809Z,98.90
2019-05-05T04:35:52.082Z,98.60
2019-05-05T04:38:54.579Z,98.40
2019-05-05T04:41:56.234Z,98.30
2019-05-05T04:44:57.520Z,98.80
2019-05-05T04:48:09.764Z,98.40
2019-05-05T04:51:13.985Z,98.60
2019-05-05T04:54:19.125Z,98.50
2019-05-05T04:57:20.402Z,98.40
2019-05-05T05:00:24.031Z,98.30
2019-05-05T05:03:34.664Z,98.10
2019-05-05T05:06:38.218Z,97.60
2019-05-05T05:09:39.606Z,97.20
2019-05-05T05:12:43.432Z,97.30
2019-05-05T05:15:44.736Z,97.70
2019-05-05T05:18:46.181Z,97.70
2019-05-05T05:21:58.468Z,98.00
2019-05-05T05:24:51.281Z,97.90
2019-05-05T05:27:53.656Z,97.70
2019-05-05T05:30:54.992Z,97.70
2019-05-05T05:33:56.321Z,97.30
2019-05-05T05:36:57.906Z,97.70
2019-05-05T05:40:07.554Z,97.60
2019-05-05T05:43:13.977Z,97.60
2019-05-05T05:46:26.230Z,97.50
2019-05-05T05:49:39.058Z,97.30
2019-05-05T05:52:40.506Z,96.70
2019-05-05T05:55:41.968Z,96.80
2019-05-05T05:58:44.208Z,97.10
2019-05-05T06:01:45.870Z,96.20
2019-05-05T06:04:47.464Z,96.20
2019-05-05T06:07:49.200Z,95.80
2019-05-05T06:10:50.497Z,95.40
2019-05-05T06:13:51.959Z,95.40
2019-05-05T06:16:53.940Z,94.60
2019-05-05T06:19:55.707Z,94.60
2019-05-05T06:22:56.973Z,93.90
2019-05-05T06:25:58.563Z,94.40
2019-05-05T06:28:59.835Z,94.30
2019-05-05T06:32:01.504Z,94.20
2019-05-05T06:35:03.756Z,93.90
2019-05-05T06:38:05.373Z,93.90
2019-05-05T06:41:20.934Z,93.50
2019-05-05T06:47:41.635Z,93.40
2019-05-05T06:50:43.798Z,93.00
2019-05-05T06:53:45.114Z,92.10
2019-05-05T06:56:46.413Z,92.20
2019-05-05T06:59:47.815Z,92.20
2019-05-05T07:02:49.171Z,91.60
2019-05-05T07:05:53.762Z,91.50
2019-05-05T07:08:54.735Z,91.20
2019-05-05T07:11:56.399Z,90.50
2019-05-05T07:14:57.673Z,90.40
2019-05-05T07:17:59.472Z,89.10
2019-05-05T07:21:00.706Z,88.80
2019-05-05T07:24:03.959Z,86.80
2019-05-05T07:27:05.494Z,86.40
2019-05-05T07:30:07.352Z,85.00
2019-05-05T07:33:08.977Z,85.10
2019-05-05T07:36:29.029Z,84.40
2019-05-05T07:39:30.913Z,84.30
2019-05-05T07:42:34.680Z,85.10
2019-05-05T07:45:36.051Z,81.60
2019-05-05T07:48:37.846Z,81.40
2019-05-05T07:51:40.828Z,81.10
2019-05-05T07:54:43.598Z,78.70
2019-05-05T07:57:45.482Z,77.60
2019-05-05T08:00:48.880Z,77.20
2019-05-05T08:03:50.328Z,77.30
2019-05-05T08:06:53.703Z,76.00
2019-05-05T08:09:55.028Z,76.30
2019-05-05T08:12:56.425Z,78.40
2019-05-05T08:16:00.217Z,74.70
2019-05-05T08:19:13.789Z,75.50
2019-05-05T08:22:17.251Z,73.10
2019-05-05T08:25:36.168Z,73.90
2019-05-05T08:28:38.646Z,72.70
2019-05-05T08:31:47.818Z,73.00
2019-05-05T08:34:59.747Z,70.40
2019-05-05T08:37:54.228Z,69.40
2019-05-05T08:40:56.106Z,70.10
2019-05-05T08:43:57.466Z,69.20
2019-05-05T08:47:00.574Z,66.40
2019-05-05T08:50:04.471Z,66.90
2019-05-05T08:53:08.571Z,68.90
2019-05-05T08:56:09.986Z,68.40
2019-05-05T08:59:11.449Z,67.60
2019-05-05T09:02:14.979Z,69.20
2019-05-05T09:05:16.549Z,68.00
2019-05-05T09:08:17.938Z,69.50
2019-05-05T09:11:19.428Z,66.80
2019-05-05T09:14:20.813Z,68.50
2019-05-05T09:17:24.255Z,68.70
2019-05-05T09:20:25.798Z,68.70
2019-05-05T09:23:28.178Z,67.20
2019-05-05T09:26:37.450Z,68.20
2019-05-05T09:29:43.955Z,68.00
2019-05-05T09:32:45.989Z,67.50
2019-05-05T09:35:47.929Z,68.10
2019-05-05T09:38:49.494Z,68.90
2019-05-05T09:41:51.177Z,68.00
2019-05-05T09:44:54.161Z,67.70
2019-05-05T09:47:55.748Z,70.10
2019-05-05T09:50:57.443Z,69.80
2019-05-05T09:54:10.997Z,66.40
2019-05-05T09:57:04.507Z,65.80
2019-05-05T10:00:08.085Z,66.50
2019-05-05T10:03:09.771Z,65.90
2019-05-05T10:06:14.109Z,67.70
2019-05-05T10:09:15.320Z,67.00
2019-05-05T10:12:16.954Z,68.10
2019-05-05T10:15:18.774Z,67.80
2019-05-05T10:18:20.089Z,67.00
2019-05-05T10:21:21.898Z,65.40
2019-05-05T10:24:30.643Z,64.90
2019-05-05T10:27:41.526Z,63.60
2019-05-05T10:30:32.416Z,66.10
2019-05-05T10:33:36.788Z,65.90
2019-05-05T10:36:39.818Z,66.50
2019-05-05T10:39:43.983Z,66.10
2019-05-05T10:42:51.333Z,64.60
2019-05-05T10:45:55.544Z,65.90
2019-05-05T10:48:59.769Z,66.50
2019-05-05T10:52:01.048Z,66.10
2019-05-05T10:55:05.641Z,65.00
2019-05-05T10:58:08.070Z,65.00
2019-05-05T11:01:14.531Z,64.60
2019-05-05T11:04:16.004Z,64.80
2019-05-05T11:07:17.803Z,62.20
2019-05-05T11:10:24.732Z,61.70
2019-05-05T11:13:27.849Z,62.40
2019-05-05T11:16:32.483Z,63.10
2019-05-05T11:19:39.738Z,64.50
2019-05-05T11:22:46.717Z,66.70
2019-05-05T11:25:50.151Z,67.60
2019-05-05T11:28:56.522Z,67.50
2019-05-05T11:32:01.096Z,68.70
2019-05-05T11:35:04.958Z,68.50
2019-05-05T11:38:07.057Z,70.80
2019-05-05T11:41:09.907Z,69.20
2019-05-05T11:44:12.255Z,69.20
2019-05-05T11:47:16.047Z,67.30
2019-05-05T11:50:18.110Z,66.80
2019-05-05T11:53:20.834Z,66.20
2019-05-05T11:56:23.097Z,64.00
2019-05-05T11:59:24.483Z,64.70
2019-05-05T12:02:25.933Z,64.30
2019-05-05T12:05:28.441Z,66.30
2019-05-05T12:08:30.034Z,66.90
2019-05-05T12:11:31.689Z,66.20
2019-05-05T12:14:34.832Z,65.80
2019-05-05T12:17:37.195Z,66.20
2019-05-05T12:20:39.395Z,68.70
2019-05-05T12:23:44.493Z,68.10
2019-05-05T12:26:59.063Z,68.10
2019-05-05T12:34:16.717Z,66.20
2019-05-05T12:37:19.669Z,66.40
2019-05-05T12:40:22.299Z,66.30
2019-05-05T12:43:25.210Z,67.70
2019-05-05T12:46:33.701Z,65.90
2019-05-05T12:49:35.867Z,67.10
2019-05-05T12:52:37.702Z,66.90
2019-05-05T12:55:41.878Z,67.00
2019-05-05T12:58:45.879Z,66.90
2019-05-05T13:01:49.262Z,67.80
2019-05-05T13:04:51.155Z,68.90
2019-05-05T13:07:53.409Z,68.30
2019-05-05T13:10:55.689Z,69.30
2019-05-05T13:13:57.779Z,69.80
2019-05-05T13:16:59.557Z,69.50
2019-05-05T13:20:05.467Z,70.30
2019-05-05T13:23:18.283Z,71.00
2019-05-05T13:26:28.643Z,68.70
2019-05-05T13:29:33.728Z,69.20
2019-05-05T13:32:35.141Z,69.00
2019-05-05T13:35:38.747Z,68.90
2019-05-05T13:38:40.574Z,69.50
2019-05-05T13:41:44.873Z,70.20
2019-05-05T13:49:17.192Z,68.50
2019-05-05T13:52:19.415Z,69.60
2019-05-05T13:55:24.117Z,71.70
2019-05-05T13:58:25.957Z,70.00
2019-05-05T14:01:30.983Z,69.60
2019-05-05T14:04:34.617Z,69.50
2019-05-05T14:07:36.572Z,69.90
2019-05-05T14:10:38.192Z,69.50
2019-05-05T14:13:40.637Z,68.20
2019-05-05T14:16:44.675Z,69.00
2019-05-05T14:20:01.139Z,68.40
2019-05-05T14:22:55.434Z,69.20
2019-05-05T14:25:57.310Z,69.00
2019-05-05T14:28:59.657Z,69.20
2019-05-05T14:32:02.572Z,67.30
2019-05-05T14:39:09.285Z,67.80
2019-05-05T14:42:11.575Z,67.50
2019-05-05T14:45:15.343Z,69.10
2019-05-05T14:48:20.143Z,70.60
2019-05-05T14:51:25.125Z,72.30
2019-05-05T14:54:28.309Z,71.60
2019-05-05T14:57:30.790Z,72.20
2019-05-05T15:00:34.880Z,73.30
2019-05-05T15:03:38.685Z,73.60
2019-05-05T15:06:44.078Z,73.50
2019-05-05T15:09:52.324Z,72.40
2019-05-05T15:12:57.953Z,71.70
2019-05-05T15:15:59.519Z,72.20
2019-05-05T15:19:03.772Z,74.20
2019-05-05T15:22:05.371Z,72.80
2019-05-05T15:25:08.123Z,73.40
2019-05-05T15:28:10.977Z,74.20
2019-05-05T15:31:12.784Z,74.40
2019-05-05T15:34:14.564Z,74.50
2019-05-05T15:37:16.217Z,74.50
2019-05-05T15:40:17.749Z,73.80
2019-05-05T15:43:19.400Z,73.30
2019-05-05T15:46:20.705Z,72.20
2019-05-05T15:49:22.497Z,72.10
2019-05-05T15:52:24.367Z,73.40
2019-05-05T15:55:26.811Z,75.00
2019-05-05T15:58:28.286Z,75.30
2019-05-05T16:01:30.367Z,75.70
2019-05-05T16:04:34.160Z,76.00
2019-05-05T16:07:36.348Z,74.80
2019-05-05T16:10:37.767Z,75.40
2019-05-05T16:13:39.117Z,76.70
2019-05-05T16:16:46.974Z,76.60
2019-05-05T16:19:55.820Z,77.40
2019-05-05T16:23:18.086Z,79.10
2019-05-05T16:26:21.820Z,78.80
2019-05-05T16:29:24.040Z,78.90
2019-05-05T16:32:26.001Z,79.80
2019-05-05T16:35:27.963Z,80.30
2019-05-05T16:38:34.276Z,81.70
2019-05-05T16:41:36.725Z,83.40
2019-05-05T16:44:41.112Z,83.00
2019-05-05T16:47:44.392Z,82.70
2019-05-05T16:50:49.881Z,84.10
2019-05-05T16:53:56.585Z,84.40
2019-05-05T16:56:59.243Z,83.00
2019-05-05T17:00:01.803Z,83.60
2019-05-05T17:03:04.287Z,83.30
2019-05-05T17:06:08.674Z,82.40
2019-05-05T17:09:10.541Z,82.30
2019-05-05T17:12:14.112Z,81.70
2019-05-05T17:15:23.753Z,82.90
2019-05-05T17:18:35.232Z,82.10
2019-05-05T17:24:46.583Z,81.50
2019-05-05T17:27:51.243Z,80.70
2019-05-05T17:30:54.357Z,80.90
2019-05-05T17:33:58.242Z,80.80
2019-05-05T17:37:01.204Z,80.60
2019-05-05T17:40:13.590Z,81.20
2019-05-05T17:43:24.858Z,80.90
2019-05-05T17:46:35.851Z,82.20
2019-05-05T17:49:58.963Z,82.80
2019-05-05T17:53:04.927Z,82.40
2019-05-05T17:56:08.823Z,81.80
2019-05-05T18:03:27.327Z,82.70
2019-05-05T18:06:40.333Z,82.80
2019-05-05T18:09:58.571Z,83.70
2019-05-05T18:13:03.645Z,83.70
2019-05-05T18:16:08.991Z,84.20
2019-05-05T18:19:10.709Z,83.40
2019-05-05T18:22:13.943Z,84.20
2019-05-05T18:25:15.776Z,83.80
2019-05-05T18:28:20.113Z,82.80
2019-05-05T18:31:20.937Z,83.50
2019-05-05T18:34:23.590Z,83.40
2019-05-05T18:37:26.503Z,83.80
2019-05-05T18:40:28.721Z,83.60
2019-05-05T18:43:51.079Z,84.00
2019-05-05T18:47:15.676Z,83.40
2019-05-05T18:50:16.954Z,82.60
2019-05-05T18:53:18.743Z,82.20
2019-05-05T18:56:20.534Z,82.70
2019-05-05T18:59:24.032Z,81.50
2019-05-05T19:02:30.114Z,82.00
2019-05-05T19:09:04.556Z,81.40
2019-05-05T19:12:10.127Z,80.20
2019-05-05T19:15:13.617Z,80.00
2019-05-05T19:18:15.344Z,79.60
2019-05-05T19:21:24.757Z,78.60
2019-05-05T19:24:26.354Z,78.70
2019-05-05T19:27:30.299Z,78.50
2019-05-05T19:30:35.723Z,78.60
2019-05-05T19:33:36.782Z,77.80
2019-05-05T19:36:40.205Z,77.70
2019-05-05T19:39:42.581Z,79.00
2019-05-05T19:42:46.335Z,78.30
2019-05-05T19:45:48.585Z,78.90
2019-05-05T19:49:14.730Z,78.70
2019-05-05T19:52:16.249Z,78.60
2019-05-05T19:55:19.001Z,78.00
2019-05-05T19:58:20.583Z,79.40
2019-05-05T20:01:34.187Z,79.40
2019-05-05T20:04:25.307Z,80.50
2019-05-05T20:07:27.982Z,80.50
2019-05-05T20:10:29.797Z,81.40
2019-05-05T20:13:32.111Z,81.80
2019-05-05T20:16:35.521Z,81.90
2019-05-05T20:19:43.755Z,82.80
2019-05-05T20:22:46.546Z,83.60
2019-05-05T20:25:47.988Z,83.80
2019-05-05T20:28:49.605Z,83.50
2019-05-05T20:31:51.529Z,85.00
2019-05-05T20:34:54.791Z,85.10
2019-05-05T20:37:58.096Z,85.30
2019-05-05T20:41:10.148Z,85.30
2019-05-05T20:44:13.814Z,86.50
2019-05-05T20:47:15.024Z,86.70
2019-05-05T20:50:16.300Z,87.50
2019-05-05T20:53:17.756Z,87.50
2019-05-05T20:56:19.158Z,88.20
2019-05-05T20:59:28.295Z,88.70
2019-05-05T21:02:24.390Z,90.40
2019-05-05T21:05:27.023Z,90.40
2019-05-05T21:08:29.545Z,90.40
2019-05-05T21:11:30.921Z,90.90
2019-05-05T21:14:35.416Z,91.30
2019-05-05T21:17:35.510Z,91.40
2019-05-05T21:20:36.737Z,91.20
2019-05-05T21:23:40.354Z,91.90
2019-05-05T21:26:49.906Z,91.80
2019-05-05T21:29:51.481Z,91.90
2019-05-05T21:32:54.701Z,92.10
2019-05-05T21:35:55.970Z,92.20
2019-05-05T21:38:57.475Z,92.10
2019-05-05T21:41:58.765Z,92.10
2019-05-05T21:45:00.214Z,92.20
2019-05-05T21:48:01.474Z,91.60
2019-05-05T21:51:19.893Z,91.80
2019-05-05T21:54:39.957Z,91.60
2019-05-05T21:58:01.410Z,91.00
2019-05-05T22:01:05.086Z,91.00
2019-05-05T22:04:06.454Z,90.90
2019-05-05T22:07:08.272Z,90.90
2019-05-05T22:10:09.904Z,90.80
2019-05-05T22:13:14.111Z,90.50
2019-05-05T22:16:15.207Z,90.60
2019-05-05T22:19:18.388Z,90.40
2019-05-05T22:22:21.734Z,90.60
2019-05-05T22:25:23.086Z,90.00
2019-05-05T22:28:26.410Z,90.00
2019-05-05T22:31:28.487Z,90.00
2019-05-05T22:34:29.812Z,90.10
2019-05-05T22:37:31.297Z,90.20
2019-05-05T22:40:34.654Z,90.00
2019-05-05T22:43:36.257Z,89.70
2019-05-05T22:46:37.812Z,89.90
2019-05-05T22:49:40.047Z,88.50
2019-05-05T22:52:41.658Z,89.70
2019-05-05T22:55:44.281Z,88.30
2019-05-05T22:58:45.561Z,88.40
2019-05-05T23:01:47.056Z,88.50
2019-05-05T23:04:54.544Z,88.40
2019-05-05T23:07:56.561Z,86.80
2019-05-05T23:10:57.834Z,86.90
2019-05-05T23:14:18.506Z,88.80
2019-05-05T23:17:30.597Z,87.20
2019-05-05T23:20:44.669Z,88.00
2019-05-05T23:23:56.626Z,88.00
2019-05-05T23:26:58.106Z,87.10
2019-05-05T23:29:59.365Z,87.90
2019-05-05T23:33:00.907Z,88.70
2019-05-05T23:36:04.090Z,87.80
2019-05-05T23:39:07.449Z,87.90
2019-05-05T23:42:08.882Z,88.00
2019-05-05T23:45:10.305Z,87.50
2019-05-05T23:48:11.572Z,87.90
2019-05-05T23:51:14.008Z,87.80
2019-05-05T23:54:15.448Z,88.70
2019-05-05T23:57:16.818Z,88.60
